Cramers, Illinois
Current Conditions -  °F | °C
As of 5:54 AM on Wednesday 26 Nov 2014 (Local Time) from KPIA Reporting Station
Clear Clear  
Wind Chill: 19°   Ceiling: Unl
Heat Index: 25°   Visibility: 8mi
Dew Point: 20°   Wind: 5mph
Humidity: 81%   Direction: 110°ESE
Pressure: 30.1"   Gusts: NA
Location:  40.7615°N, 89.9372°W
Report Text: KPIA 261154Z 11004KT 8SM CLR M04/M07 A3010 RMK AO2 SLP202 T10391067 11039 21056 56006
Loading
Personal Weather Stations






























Interactive Weather Map New forecast layout! Learn more

10-Day Weather Forecast

Advertisements
Track Severe Weather on mobile